sensor_id;sensor_type;location;lat;lon;timestamp;P1;durP1;ratioP1;P2;durP2;ratioP2
77722;SDS011;67811;42.656;23.394;2024-01-30T00:01:25;7.88;;;3.47;;
77722;SDS011;67811;42.656;23.394;2024-01-30T00:05:31;8.07;;;3.23;;
77722;SDS011;67811;42.656;23.394;2024-01-30T00:09:37;7.60;;;3.27;;
77722;SDS011;67811;42.656;23.394;2024-01-30T00:13:43;5.82;;;3.03;;
77722;SDS011;67811;42.656;23.394;2024-01-30T00:17:48;5.70;;;2.87;;
77722;SDS011;67811;42.656;23.394;2024-01-30T00:21:53;6.27;;;3.27;;
77722;SDS011;67811;42.656;23.394;2024-01-30T00:25:58;5.87;;;3.00;;
77722;SDS011;67811;42.656;23.394;2024-01-30T00:30:04;6.03;;;3.10;;
77722;SDS011;67811;42.656;23.394;2024-01-30T00:34:09;4.65;;;2.65;;
77722;SDS011;67811;42.656;23.394;2024-01-30T00:38:15;6.10;;;2.90;;
77722;SDS011;67811;42.656;23.394;2024-01-30T00:42:20;6.67;;;2.70;;
77722;SDS011;67811;42.656;23.394;2024-01-30T00:46:25;6.10;;;3.17;;
77722;SDS011;67811;42.656;23.394;2024-01-30T00:50:31;6.50;;;2.70;;
77722;SDS011;67811;42.656;23.394;2024-01-30T00:54:36;6.73;;;2.73;;
77722;SDS011;67811;42.656;23.394;2024-01-30T00:58:41;5.50;;;2.80;;
77722;SDS011;67811;42.656;23.394;2024-01-30T01:02:47;5.97;;;3.00;;
77722;SDS011;67811;42.656;23.394;2024-01-30T01:06:52;4.93;;;2.83;;
77722;SDS011;67811;42.656;23.394;2024-01-30T01:10:57;5.17;;;2.80;;
77722;SDS011;67811;42.656;23.394;2024-01-30T01:15:02;4.83;;;2.77;;
77722;SDS011;67811;42.656;23.394;2024-01-30T01:19:08;6.80;;;2.67;;
77722;SDS011;67811;42.656;23.394;2024-01-30T01:23:13;8.50;;;3.43;;
77722;SDS011;67811;42.656;23.394;2024-01-30T01:27:18;7.60;;;2.87;;
77722;SDS011;67811;42.656;23.394;2024-01-30T01:31:24;7.27;;;2.60;;
77722;SDS011;67811;42.656;23.394;2024-01-30T01:35:29;8.07;;;3.30;;
77722;SDS011;67811;42.656;23.394;2024-01-30T01:39:34;6.73;;;3.37;;
77722;SDS011;67811;42.656;23.394;2024-01-30T01:43:40;7.50;;;3.57;;
77722;SDS011;67811;42.656;23.394;2024-01-30T01:47:47;7.03;;;3.10;;
77722;SDS011;67811;42.656;23.394;2024-01-30T01:51:55;8.07;;;2.97;;
77722;SDS011;67811;42.656;23.394;2024-01-30T01:56:01;7.47;;;2.75;;
77722;SDS011;67811;42.656;23.394;2024-01-30T02:00:07;6.35;;;3.22;;
77722;SDS011;67811;42.656;23.394;2024-01-30T02:04:15;7.53;;;3.25;;
77722;SDS011;67811;42.656;23.394;2024-01-30T02:08:21;5.07;;;2.70;;
77722;SDS011;67811;42.656;23.394;2024-01-30T02:12:26;7.00;;;2.67;;
77722;SDS011;67811;42.656;23.394;2024-01-30T02:16:32;7.67;;;3.20;;
77722;SDS011;67811;42.656;23.394;2024-01-30T02:20:37;8.25;;;2.85;;
77722;SDS011;67811;42.656;23.394;2024-01-30T02:24:43;5.70;;;2.55;;
77722;SDS011;67811;42.656;23.394;2024-01-30T02:28:48;7.33;;;3.37;;
77722;SDS011;67811;42.656;23.394;2024-01-30T02:32:53;5.53;;;2.27;;
77722;SDS011;67811;42.656;23.394;2024-01-30T02:36:59;6.87;;;3.23;;
77722;SDS011;67811;42.656;23.394;2024-01-30T02:41:04;7.00;;;3.33;;
77722;SDS011;67811;42.656;23.394;2024-01-30T02:45:09;3.97;;;2.47;;
77722;SDS011;67811;42.656;23.394;2024-01-30T02:49:15;6.13;;;2.53;;
77722;SDS011;67811;42.656;23.394;2024-01-30T02:53:20;5.07;;;2.87;;
77722;SDS011;67811;42.656;23.394;2024-01-30T02:57:26;8.13;;;2.67;;
77722;SDS011;67811;42.656;23.394;2024-01-30T03:01:31;6.10;;;2.53;;
77722;SDS011;67811;42.656;23.394;2024-01-30T03:05:36;7.07;;;2.93;;
77722;SDS011;67811;42.656;23.394;2024-01-30T03:09:42;4.90;;;2.50;;
77722;SDS011;67811;42.656;23.394;2024-01-30T03:13:47;7.97;;;3.00;;
77722;SDS011;67811;42.656;23.394;2024-01-30T03:17:53;5.97;;;2.30;;
77722;SDS011;67811;42.656;23.394;2024-01-30T03:21:59;5.93;;;2.78;;
77722;SDS011;67811;42.656;23.394;2024-01-30T03:26:04;6.28;;;2.20;;
77722;SDS011;67811;42.656;23.394;2024-01-30T03:30:10;6.60;;;3.10;;
77722;SDS011;67811;42.656;23.394;2024-01-30T03:34:15;6.17;;;2.20;;
77722;SDS011;67811;42.656;23.394;2024-01-30T03:38:20;4.07;;;1.93;;
77722;SDS011;67811;42.656;23.394;2024-01-30T03:42:26;4.70;;;2.47;;
77722;SDS011;67811;42.656;23.394;2024-01-30T03:46:31;4.20;;;1.80;;
77722;SDS011;67811;42.656;23.394;2024-01-30T03:50:36;5.37;;;2.40;;
77722;SDS011;67811;42.656;23.394;2024-01-30T03:54:41;4.07;;;2.10;;
77722;SDS011;67811;42.656;23.394;2024-01-30T03:58:47;5.73;;;2.30;;
77722;SDS011;67811;42.656;23.394;2024-01-30T04:02:53;4.30;;;1.67;;
77722;SDS011;67811;42.656;23.394;2024-01-30T04:06:58;5.65;;;2.05;;
77722;SDS011;67811;42.656;23.394;2024-01-30T04:11:04;3.90;;;2.00;;
77722;SDS011;67811;42.656;23.394;2024-01-30T04:15:10;4.30;;;2.25;;
77722;SDS011;67811;42.656;23.394;2024-01-30T04:19:15;5.33;;;2.50;;
77722;SDS011;67811;42.656;23.394;2024-01-30T04:23:20;6.53;;;2.37;;
77722;SDS011;67811;42.656;23.394;2024-01-30T04:27:26;8.65;;;3.75;;
77722;SDS011;67811;42.656;23.394;2024-01-30T04:31:31;9.07;;;4.07;;
77722;SDS011;67811;42.656;23.394;2024-01-30T04:35:37;8.00;;;3.67;;
77722;SDS011;67811;42.656;23.394;2024-01-30T04:39:42;6.57;;;2.93;;
77722;SDS011;67811;42.656;23.394;2024-01-30T04:43:47;6.47;;;2.70;;
77722;SDS011;67811;42.656;23.394;2024-01-30T04:47:52;7.27;;;3.53;;
77722;SDS011;67811;42.656;23.394;2024-01-30T04:51:58;5.77;;;2.70;;
77722;SDS011;67811;42.656;23.394;2024-01-30T04:56:04;5.87;;;2.73;;
77722;SDS011;67811;42.656;23.394;2024-01-30T05:00:10;6.95;;;3.03;;
77722;SDS011;67811;42.656;23.394;2024-01-30T05:04:15;6.90;;;2.88;;
77722;SDS011;67811;42.656;23.394;2024-01-30T05:08:21;7.40;;;3.40;;
77722;SDS011;67811;42.656;23.394;2024-01-30T05:12:26;7.47;;;3.13;;
77722;SDS011;67811;42.656;23.394;2024-01-30T05:16:31;5.13;;;2.37;;
77722;SDS011;67811;42.656;23.394;2024-01-30T05:20:37;6.70;;;2.73;;
77722;SDS011;67811;42.656;23.394;2024-01-30T05:24:42;10.20;;;3.73;;
77722;SDS011;67811;42.656;23.394;2024-01-30T05:28:47;7.13;;;3.00;;
77722;SDS011;67811;42.656;23.394;2024-01-30T05:32:52;7.47;;;3.20;;
77722;SDS011;67811;42.656;23.394;2024-01-30T05:36:58;6.13;;;3.20;;
77722;SDS011;67811;42.656;23.394;2024-01-30T05:41:03;6.20;;;2.67;;
77722;SDS011;67811;42.656;23.394;2024-01-30T05:45:08;7.17;;;2.93;;
77722;SDS011;67811;42.656;23.394;2024-01-30T05:49:14;5.53;;;2.67;;
77722;SDS011;67811;42.656;23.394;2024-01-30T05:53:19;7.03;;;2.90;;
77722;SDS011;67811;42.656;23.394;2024-01-30T05:57:24;5.80;;;2.47;;
77722;SDS011;67811;42.656;23.394;2024-01-30T06:01:30;7.93;;;3.43;;
77722;SDS011;67811;42.656;23.394;2024-01-30T06:05:35;9.87;;;4.83;;
77722;SDS011;67811;42.656;23.394;2024-01-30T06:09:40;7.47;;;3.30;;
77722;SDS011;67811;42.656;23.394;2024-01-30T06:13:45;6.90;;;1.87;;
77722;SDS011;67811;42.656;23.394;2024-01-30T06:17:51;9.13;;;3.17;;
77722;SDS011;67811;42.656;23.394;2024-01-30T06:21:56;2.97;;;1.60;;
77722;SDS011;67811;42.656;23.394;2024-01-30T06:26:01;6.20;;;2.67;;
77722;SDS011;67811;42.656;23.394;2024-01-30T06:30:07;7.20;;;2.73;;
77722;SDS011;67811;42.656;23.394;2024-01-30T06:34:12;3.47;;;2.10;;
77722;SDS011;67811;42.656;23.394;2024-01-30T06:38:17;6.73;;;2.53;;
77722;SDS011;67811;42.656;23.394;2024-01-30T06:42:23;6.33;;;2.47;;
77722;SDS011;67811;42.656;23.394;2024-01-30T06:46:28;4.53;;;2.20;;
77722;SDS011;67811;42.656;23.394;2024-01-30T06:50:33;5.00;;;2.53;;
77722;SDS011;67811;42.656;23.394;2024-01-30T06:54:39;3.93;;;1.73;;
77722;SDS011;67811;42.656;23.394;2024-01-30T06:58:44;1.50;;;0.83;;
77722;SDS011;67811;42.656;23.394;2024-01-30T07:02:49;6.53;;;3.03;;
77722;SDS011;67811;42.656;23.394;2024-01-30T07:06:54;7.13;;;3.33;;
77722;SDS011;67811;42.656;23.394;2024-01-30T07:11:00;12.33;;;2.80;;
77722;SDS011;67811;42.656;23.394;2024-01-30T07:15:05;8.67;;;3.53;;
77722;SDS011;67811;42.656;23.394;2024-01-30T07:19:10;8.10;;;2.58;;
77722;SDS011;67811;42.656;23.394;2024-01-30T07:23:16;5.53;;;2.47;;
77722;SDS011;67811;42.656;23.394;2024-01-30T07:27:21;8.65;;;2.88;;
77722;SDS011;67811;42.656;23.394;2024-01-30T07:31:27;4.57;;;2.00;;
77722;SDS011;67811;42.656;23.394;2024-01-30T07:35:32;8.47;;;4.30;;
77722;SDS011;67811;42.656;23.394;2024-01-30T07:39:37;9.17;;;3.30;;
77722;SDS011;67811;42.656;23.394;2024-01-30T07:43:43;6.53;;;2.30;;
77722;SDS011;67811;42.656;23.394;2024-01-30T07:47:48;6.77;;;2.43;;
77722;SDS011;67811;42.656;23.394;2024-01-30T07:51:54;5.95;;;2.58;;
77722;SDS011;67811;42.656;23.394;2024-01-30T07:55:59;1.93;;;1.47;;
77722;SDS011;67811;42.656;23.394;2024-01-30T08:00:05;3.27;;;1.97;;
77722;SDS011;67811;42.656;23.394;2024-01-30T08:04:10;5.00;;;2.60;;
77722;SDS011;67811;42.656;23.394;2024-01-30T08:08:16;6.17;;;2.90;;
77722;SDS011;67811;42.656;23.394;2024-01-30T08:12:21;6.33;;;2.73;;
77722;SDS011;67811;42.656;23.394;2024-01-30T08:16:26;5.93;;;3.33;;
77722;SDS011;67811;42.656;23.394;2024-01-30T08:20:32;8.00;;;3.63;;
77722;SDS011;67811;42.656;23.394;2024-01-30T08:24:37;6.83;;;3.63;;
77722;SDS011;67811;42.656;23.394;2024-01-30T08:28:42;6.13;;;2.87;;
77722;SDS011;67811;42.656;23.394;2024-01-30T08:32:48;4.63;;;2.20;;
77722;SDS011;67811;42.656;23.394;2024-01-30T08:36:54;5.95;;;1.98;;
77722;SDS011;67811;42.656;23.394;2024-01-30T08:40:59;5.27;;;2.23;;
77722;SDS011;67811;42.656;23.394;2024-01-30T08:45:05;2.53;;;2.00;;
77722;SDS011;67811;42.656;23.394;2024-01-30T08:49:11;5.95;;;2.55;;
77722;SDS011;67811;42.656;23.394;2024-01-30T08:53:16;4.88;;;2.45;;
77722;SDS011;67811;42.656;23.394;2024-01-30T08:57:22;5.57;;;2.67;;
77722;SDS011;67811;42.656;23.394;2024-01-30T09:01:27;2.43;;;1.27;;
77722;SDS011;67811;42.656;23.394;2024-01-30T09:05:32;5.33;;;2.17;;
77722;SDS011;67811;42.656;23.394;2024-01-30T09:09:38;3.10;;;1.90;;
77722;SDS011;67811;42.656;23.394;2024-01-30T09:13:44;4.90;;;2.38;;
77722;SDS011;67811;42.656;23.394;2024-01-30T09:17:49;6.10;;;2.40;;
77722;SDS011;67811;42.656;23.394;2024-01-30T09:21:54;6.57;;;2.43;;
77722;SDS011;67811;42.656;23.394;2024-01-30T09:26:00;6.63;;;2.80;;
77722;SDS011;67811;42.656;23.394;2024-01-30T09:30:05;7.23;;;4.47;;
77722;SDS011;67811;42.656;23.394;2024-01-30T09:34:11;22.15;;;13.68;;
77722;SDS011;67811;42.656;23.394;2024-01-30T09:38:17;47.88;;;25.73;;
77722;SDS011;67811;42.656;23.394;2024-01-30T09:42:35;5.73;;;3.33;;
77722;SDS011;67811;42.656;23.394;2024-01-30T09:46:40;4.88;;;2.33;;
77722;SDS011;67811;42.656;23.394;2024-01-30T09:50:46;5.38;;;2.20;;
77722;SDS011;67811;42.656;23.394;2024-01-30T09:54:52;6.17;;;2.50;;
77722;SDS011;67811;42.656;23.394;2024-01-30T09:58:58;5.93;;;2.60;;
77722;SDS011;67811;42.656;23.394;2024-01-30T10:03:03;5.43;;;2.60;;
77722;SDS011;67811;42.656;23.394;2024-01-30T10:07:09;6.47;;;2.78;;
77722;SDS011;67811;42.656;23.394;2024-01-30T10:11:15;7.13;;;3.63;;
77722;SDS011;67811;42.656;23.394;2024-01-30T10:15:20;7.07;;;2.50;;
77722;SDS011;67811;42.656;23.394;2024-01-30T10:19:25;4.77;;;2.40;;
77722;SDS011;67811;42.656;23.394;2024-01-30T10:23:31;5.67;;;2.37;;
77722;SDS011;67811;42.656;23.394;2024-01-30T10:27:36;7.23;;;2.93;;
77722;SDS011;67811;42.656;23.394;2024-01-30T10:31:42;5.00;;;2.45;;
77722;SDS011;67811;42.656;23.394;2024-01-30T10:35:47;7.87;;;2.50;;
77722;SDS011;67811;42.656;23.394;2024-01-30T10:39:54;5.78;;;2.55;;
77722;SDS011;67811;42.656;23.394;2024-01-30T10:44:08;5.05;;;2.05;;
77722;SDS011;67811;42.656;23.394;2024-01-30T10:48:14;4.10;;;1.85;;
77722;SDS011;67811;42.656;23.394;2024-01-30T10:52:24;4.22;;;2.00;;
77722;SDS011;67811;42.656;23.394;2024-01-30T10:56:29;3.75;;;1.75;;
77722;SDS011;67811;42.656;23.394;2024-01-30T11:00:36;5.15;;;2.28;;
77722;SDS011;67811;42.656;23.394;2024-01-30T11:04:41;4.13;;;1.83;;
77722;SDS011;67811;42.656;23.394;2024-01-30T11:08:47;4.10;;;2.10;;
77722;SDS011;67811;42.656;23.394;2024-01-30T11:13:13;4.97;;;2.22;;
77722;SDS011;67811;42.656;23.394;2024-01-30T11:17:19;4.63;;;2.00;;
77722;SDS011;67811;42.656;23.394;2024-01-30T11:21:25;4.13;;;2.00;;
77722;SDS011;67811;42.656;23.394;2024-01-30T11:25:30;4.22;;;1.90;;
77722;SDS011;67811;42.656;23.394;2024-01-30T11:29:36;3.85;;;2.03;;
77722;SDS011;67811;42.656;23.394;2024-01-30T11:33:42;4.20;;;1.80;;
77722;SDS011;67811;42.656;23.394;2024-01-30T11:37:47;4.93;;;1.90;;
77722;SDS011;67811;42.656;23.394;2024-01-30T11:41:54;5.13;;;2.25;;
77722;SDS011;67811;42.656;23.394;2024-01-30T11:46:00;5.95;;;2.47;;
77722;SDS011;67811;42.656;23.394;2024-01-30T11:50:05;5.73;;;1.77;;
77722;SDS011;67811;42.656;23.394;2024-01-30T11:54:11;6.43;;;2.15;;
77722;SDS011;67811;42.656;23.394;2024-01-30T11:58:16;8.50;;;2.10;;
77722;SDS011;67811;42.656;23.394;2024-01-30T12:02:22;8.87;;;2.27;;
77722;SDS011;67811;42.656;23.394;2024-01-30T12:06:27;5.63;;;2.03;;
77722;SDS011;67811;42.656;23.394;2024-01-30T12:10:32;4.93;;;2.27;;
77722;SDS011;67811;42.656;23.394;2024-01-30T12:14:39;5.20;;;2.97;;
77722;SDS011;67811;42.656;23.394;2024-01-30T12:18:44;6.03;;;2.17;;
77722;SDS011;67811;42.656;23.394;2024-01-30T12:22:50;4.93;;;1.87;;
77722;SDS011;67811;42.656;23.394;2024-01-30T12:26:58;5.63;;;2.43;;
77722;SDS011;67811;42.656;23.394;2024-01-30T12:31:04;5.95;;;1.92;;
77722;SDS011;67811;42.656;23.394;2024-01-30T12:35:10;4.33;;;1.93;;
77722;SDS011;67811;42.656;23.394;2024-01-30T12:39:19;5.22;;;2.33;;
77722;SDS011;67811;42.656;23.394;2024-01-30T12:43:25;5.07;;;2.30;;
77722;SDS011;67811;42.656;23.394;2024-01-30T12:47:30;5.38;;;2.42;;
77722;SDS011;67811;42.656;23.394;2024-01-30T12:51:36;4.40;;;2.35;;
77722;SDS011;67811;42.656;23.394;2024-01-30T12:55:41;6.03;;;2.17;;
77722;SDS011;67811;42.656;23.394;2024-01-30T12:59:47;5.50;;;2.33;;
77722;SDS011;67811;42.656;23.394;2024-01-30T13:03:52;5.63;;;2.05;;
77722;SDS011;67811;42.656;23.394;2024-01-30T13:07:58;5.27;;;2.63;;
77722;SDS011;67811;42.656;23.394;2024-01-30T13:12:03;5.13;;;2.10;;
77722;SDS011;67811;42.656;23.394;2024-01-30T13:16:08;4.90;;;2.35;;
77722;SDS011;67811;42.656;23.394;2024-01-30T13:20:14;4.40;;;2.63;;
77722;SDS011;67811;42.656;23.394;2024-01-30T13:24:19;5.93;;;2.80;;
77722;SDS011;67811;42.656;23.394;2024-01-30T13:28:24;4.77;;;2.57;;
77722;SDS011;67811;42.656;23.394;2024-01-30T13:32:30;4.40;;;2.30;;
77722;SDS011;67811;42.656;23.394;2024-01-30T13:36:35;4.00;;;2.20;;
77722;SDS011;67811;42.656;23.394;2024-01-30T13:40:40;5.20;;;2.73;;
77722;SDS011;67811;42.656;23.394;2024-01-30T13:44:45;7.63;;;2.63;;
77722;SDS011;67811;42.656;23.394;2024-01-30T13:48:51;5.17;;;2.63;;
77722;SDS011;67811;42.656;23.394;2024-01-30T13:52:57;6.38;;;2.38;;
77722;SDS011;67811;42.656;23.394;2024-01-30T13:57:02;4.23;;;2.17;;
77722;SDS011;67811;42.656;23.394;2024-01-30T14:01:08;6.13;;;2.50;;
77722;SDS011;67811;42.656;23.394;2024-01-30T14:05:14;5.57;;;2.45;;
77722;SDS011;67811;42.656;23.394;2024-01-30T14:09:19;4.97;;;2.10;;
77722;SDS011;67811;42.656;23.394;2024-01-30T14:13:24;8.50;;;2.80;;
77722;SDS011;67811;42.656;23.394;2024-01-30T14:17:30;6.83;;;2.70;;
77722;SDS011;67811;42.656;23.394;2024-01-30T14:21:35;4.37;;;2.13;;
77722;SDS011;67811;42.656;23.394;2024-01-30T14:25:40;5.23;;;2.67;;
77722;SDS011;67811;42.656;23.394;2024-01-30T14:29:45;7.40;;;2.43;;
77722;SDS011;67811;42.656;23.394;2024-01-30T14:33:51;5.90;;;1.90;;
77722;SDS011;67811;42.656;23.394;2024-01-30T14:37:56;5.10;;;2.40;;
77722;SDS011;67811;42.656;23.394;2024-01-30T14:42:01;4.90;;;2.13;;
77722;SDS011;67811;42.656;23.394;2024-01-30T14:46:07;8.17;;;3.00;;
77722;SDS011;67811;42.656;23.394;2024-01-30T14:50:12;6.53;;;2.63;;
77722;SDS011;67811;42.656;23.394;2024-01-30T14:54:17;6.37;;;3.00;;
77722;SDS011;67811;42.656;23.394;2024-01-30T14:58:22;4.80;;;2.40;;
77722;SDS011;67811;42.656;23.394;2024-01-30T15:02:28;6.17;;;2.50;;
77722;SDS011;67811;42.656;23.394;2024-01-30T15:06:33;6.03;;;2.60;;
77722;SDS011;67811;42.656;23.394;2024-01-30T15:10:38;5.97;;;2.83;;
77722;SDS011;67811;42.656;23.394;2024-01-30T15:14:44;5.90;;;2.53;;
77722;SDS011;67811;42.656;23.394;2024-01-30T15:18:49;7.37;;;2.63;;
77722;SDS011;67811;42.656;23.394;2024-01-30T15:22:54;6.53;;;2.73;;
77722;SDS011;67811;42.656;23.394;2024-01-30T15:27:00;6.10;;;2.87;;
77722;SDS011;67811;42.656;23.394;2024-01-30T15:31:06;6.38;;;2.35;;
77722;SDS011;67811;42.656;23.394;2024-01-30T15:35:12;9.23;;;2.95;;
77722;SDS011;67811;42.656;23.394;2024-01-30T15:39:17;7.47;;;3.10;;
77722;SDS011;67811;42.656;23.394;2024-01-30T15:43:22;6.27;;;2.70;;
77722;SDS011;67811;42.656;23.394;2024-01-30T15:47:28;6.13;;;3.23;;
77722;SDS011;67811;42.656;23.394;2024-01-30T15:51:33;8.77;;;3.17;;
77722;SDS011;67811;42.656;23.394;2024-01-30T15:55:38;6.10;;;2.87;;
77722;SDS011;67811;42.656;23.394;2024-01-30T15:59:43;6.37;;;3.07;;
77722;SDS011;67811;42.656;23.394;2024-01-30T16:03:49;7.03;;;3.00;;
77722;SDS011;67811;42.656;23.394;2024-01-30T16:07:54;7.40;;;3.47;;
77722;SDS011;67811;42.656;23.394;2024-01-30T16:11:59;7.77;;;2.87;;
77722;SDS011;67811;42.656;23.394;2024-01-30T16:16:05;8.23;;;3.37;;
77722;SDS011;67811;42.656;23.394;2024-01-30T16:20:10;10.80;;;3.75;;
77722;SDS011;67811;42.656;23.394;2024-01-30T16:24:15;6.77;;;3.37;;
77722;SDS011;67811;42.656;23.394;2024-01-30T16:28:24;9.17;;;4.20;;
77722;SDS011;67811;42.656;23.394;2024-01-30T16:32:30;6.80;;;3.00;;
77722;SDS011;67811;42.656;23.394;2024-01-30T16:36:35;7.03;;;3.43;;
77722;SDS011;67811;42.656;23.394;2024-01-30T16:40:40;15.77;;;4.17;;
77722;SDS011;67811;42.656;23.394;2024-01-30T16:44:46;9.67;;;4.13;;
77722;SDS011;67811;42.656;23.394;2024-01-30T16:48:51;9.90;;;4.20;;
77722;SDS011;67811;42.656;23.394;2024-01-30T16:52:56;11.77;;;4.70;;
77722;SDS011;67811;42.656;23.394;2024-01-30T16:57:01;8.93;;;4.67;;
77722;SDS011;67811;42.656;23.394;2024-01-30T17:01:07;10.93;;;4.67;;
77722;SDS011;67811;42.656;23.394;2024-01-30T17:05:12;10.33;;;5.80;;
77722;SDS011;67811;42.656;23.394;2024-01-30T17:09:17;15.00;;;5.67;;
77722;SDS011;67811;42.656;23.394;2024-01-30T17:13:23;11.20;;;5.10;;
77722;SDS011;67811;42.656;23.394;2024-01-30T17:17:28;13.27;;;5.63;;
77722;SDS011;67811;42.656;23.394;2024-01-30T17:21:33;9.70;;;4.43;;
77722;SDS011;67811;42.656;23.394;2024-01-30T17:25:39;9.40;;;4.17;;
77722;SDS011;67811;42.656;23.394;2024-01-30T17:29:44;8.25;;;3.80;;
77722;SDS011;67811;42.656;23.394;2024-01-30T17:33:49;9.23;;;4.07;;
77722;SDS011;67811;42.656;23.394;2024-01-30T17:37:55;11.47;;;4.30;;
77722;SDS011;67811;42.656;23.394;2024-01-30T17:42:00;11.07;;;4.60;;
77722;SDS011;67811;42.656;23.394;2024-01-30T17:46:05;12.60;;;4.83;;
77722;SDS011;67811;42.656;23.394;2024-01-30T17:50:10;11.10;;;4.83;;
77722;SDS011;67811;42.656;23.394;2024-01-30T17:54:16;11.40;;;4.23;;
77722;SDS011;67811;42.656;23.394;2024-01-30T17:58:21;9.70;;;3.73;;
77722;SDS011;67811;42.656;23.394;2024-01-30T18:02:26;7.80;;;4.30;;
77722;SDS011;67811;42.656;23.394;2024-01-30T18:06:32;11.43;;;5.17;;
77722;SDS011;67811;42.656;23.394;2024-01-30T18:10:37;8.93;;;4.37;;
77722;SDS011;67811;42.656;23.394;2024-01-30T18:14:42;8.97;;;4.70;;
77722;SDS011;67811;42.656;23.394;2024-01-30T18:18:47;12.40;;;4.67;;
77722;SDS011;67811;42.656;23.394;2024-01-30T18:22:53;7.70;;;3.43;;
77722;SDS011;67811;42.656;23.394;2024-01-30T18:26:58;11.20;;;4.17;;
77722;SDS011;67811;42.656;23.394;2024-01-30T18:31:03;8.43;;;4.70;;
77722;SDS011;67811;42.656;23.394;2024-01-30T18:35:09;9.33;;;3.90;;
77722;SDS011;67811;42.656;23.394;2024-01-30T18:39:14;9.63;;;4.10;;
77722;SDS011;67811;42.656;23.394;2024-01-30T18:43:19;13.30;;;5.53;;
77722;SDS011;67811;42.656;23.394;2024-01-30T18:47:24;10.07;;;4.97;;
77722;SDS011;67811;42.656;23.394;2024-01-30T18:51:30;10.23;;;5.63;;
77722;SDS011;67811;42.656;23.394;2024-01-30T18:55:35;8.50;;;4.43;;
77722;SDS011;67811;42.656;23.394;2024-01-30T18:59:40;10.07;;;4.63;;
77722;SDS011;67811;42.656;23.394;2024-01-30T19:03:46;10.03;;;4.40;;
77722;SDS011;67811;42.656;23.394;2024-01-30T19:07:51;13.40;;;5.17;;
77722;SDS011;67811;42.656;23.394;2024-01-30T19:11:56;8.17;;;4.50;;
77722;SDS011;67811;42.656;23.394;2024-01-30T19:16:01;11.03;;;5.20;;
77722;SDS011;67811;42.656;23.394;2024-01-30T19:20:07;8.80;;;4.07;;
77722;SDS011;67811;42.656;23.394;2024-01-30T19:24:13;9.70;;;4.85;;
77722;SDS011;67811;42.656;23.394;2024-01-30T19:28:18;13.47;;;5.53;;
77722;SDS011;67811;42.656;23.394;2024-01-30T19:32:23;6.40;;;4.10;;
77722;SDS011;67811;42.656;23.394;2024-01-30T19:36:29;8.55;;;5.15;;
77722;SDS011;67811;42.656;23.394;2024-01-30T19:40:34;11.37;;;5.63;;
77722;SDS011;67811;42.656;23.394;2024-01-30T19:44:39;11.20;;;5.77;;
77722;SDS011;67811;42.656;23.394;2024-01-30T19:48:45;11.73;;;5.80;;
77722;SDS011;67811;42.656;23.394;2024-01-30T19:52:50;12.33;;;6.07;;
77722;SDS011;67811;42.656;23.394;2024-01-30T19:56:56;14.97;;;6.63;;
77722;SDS011;67811;42.656;23.394;2024-01-30T20:01:01;9.70;;;5.53;;
77722;SDS011;67811;42.656;23.394;2024-01-30T20:05:07;9.87;;;5.67;;
77722;SDS011;67811;42.656;23.394;2024-01-30T20:09:12;10.93;;;5.63;;
77722;SDS011;67811;42.656;23.394;2024-01-30T20:13:18;14.55;;;6.88;;
77722;SDS011;67811;42.656;23.394;2024-01-30T20:17:23;9.70;;;5.33;;
77722;SDS011;67811;42.656;23.394;2024-01-30T20:21:28;12.67;;;6.80;;
77722;SDS011;67811;42.656;23.394;2024-01-30T20:25:34;18.10;;;7.00;;
77722;SDS011;67811;42.656;23.394;2024-01-30T20:29:39;10.27;;;5.27;;
77722;SDS011;67811;42.656;23.394;2024-01-30T20:33:44;15.53;;;6.67;;
77722;SDS011;67811;42.656;23.394;2024-01-30T20:37:50;14.30;;;6.07;;
77722;SDS011;67811;42.656;23.394;2024-01-30T20:41:55;14.70;;;6.83;;
77722;SDS011;67811;42.656;23.394;2024-01-30T20:46:00;16.17;;;7.67;;
77722;SDS011;67811;42.656;23.394;2024-01-30T20:50:06;16.83;;;8.27;;
77722;SDS011;67811;42.656;23.394;2024-01-30T20:54:11;13.55;;;6.88;;
77722;SDS011;67811;42.656;23.394;2024-01-30T20:58:16;13.17;;;6.10;;
77722;SDS011;67811;42.656;23.394;2024-01-30T21:02:22;10.02;;;4.95;;
77722;SDS011;67811;42.656;23.394;2024-01-30T21:06:27;9.37;;;5.50;;
77722;SDS011;67811;42.656;23.394;2024-01-30T21:10:33;10.80;;;5.50;;
77722;SDS011;67811;42.656;23.394;2024-01-30T21:14:38;16.80;;;5.93;;
77722;SDS011;67811;42.656;23.394;2024-01-30T21:18:43;9.83;;;5.53;;
77722;SDS011;67811;42.656;23.394;2024-01-30T21:22:49;12.17;;;5.70;;
77722;SDS011;67811;42.656;23.394;2024-01-30T21:26:54;11.33;;;5.97;;
77722;SDS011;67811;42.656;23.394;2024-01-30T21:30:59;15.37;;;7.00;;
77722;SDS011;67811;42.656;23.394;2024-01-30T21:35:05;14.67;;;6.80;;
77722;SDS011;67811;42.656;23.394;2024-01-30T21:39:10;21.38;;;8.23;;
77722;SDS011;67811;42.656;23.394;2024-01-30T21:43:16;17.70;;;7.87;;
77722;SDS011;67811;42.656;23.394;2024-01-30T21:47:21;7.47;;;4.50;;
77722;SDS011;67811;42.656;23.394;2024-01-30T21:51:27;8.38;;;4.55;;
77722;SDS011;67811;42.656;23.394;2024-01-30T21:55:32;13.43;;;6.73;;
77722;SDS011;67811;42.656;23.394;2024-01-30T21:59:37;48.87;;;20.20;;
77722;SDS011;67811;42.656;23.394;2024-01-30T22:03:43;21.50;;;9.70;;
77722;SDS011;67811;42.656;23.394;2024-01-30T22:07:48;13.47;;;6.97;;
77722;SDS011;67811;42.656;23.394;2024-01-30T22:11:53;26.70;;;11.77;;
77722;SDS011;67811;42.656;23.394;2024-01-30T22:15:59;17.03;;;7.17;;
77722;SDS011;67811;42.656;23.394;2024-01-30T22:20:04;6.73;;;2.53;;
77722;SDS011;67811;42.656;23.394;2024-01-30T22:24:10;10.35;;;5.18;;
77722;SDS011;67811;42.656;23.394;2024-01-30T22:28:16;6.20;;;3.73;;
77722;SDS011;67811;42.656;23.394;2024-01-30T22:32:21;4.30;;;3.47;;
77722;SDS011;67811;42.656;23.394;2024-01-30T22:36:26;3.77;;;1.53;;
77722;SDS011;67811;42.656;23.394;2024-01-30T22:40:31;5.07;;;3.70;;
77722;SDS011;67811;42.656;23.394;2024-01-30T22:44:37;5.90;;;3.47;;
77722;SDS011;67811;42.656;23.394;2024-01-30T22:48:42;8.37;;;4.80;;
77722;SDS011;67811;42.656;23.394;2024-01-30T22:52:47;3.47;;;3.17;;
77722;SDS011;67811;42.656;23.394;2024-01-30T22:56:52;5.27;;;3.13;;
77722;SDS011;67811;42.656;23.394;2024-01-30T23:00:58;9.73;;;4.03;;
77722;SDS011;67811;42.656;23.394;2024-01-30T23:05:03;8.87;;;5.70;;
77722;SDS011;67811;42.656;23.394;2024-01-30T23:09:08;6.90;;;3.97;;
77722;SDS011;67811;42.656;23.394;2024-01-30T23:13:14;8.17;;;4.10;;
77722;SDS011;67811;42.656;23.394;2024-01-30T23:17:19;5.90;;;3.10;;
77722;SDS011;67811;42.656;23.394;2024-01-30T23:21:24;6.53;;;3.00;;
77722;SDS011;67811;42.656;23.394;2024-01-30T23:25:30;3.83;;;2.37;;
77722;SDS011;67811;42.656;23.394;2024-01-30T23:29:35;6.83;;;3.20;;
77722;SDS011;67811;42.656;23.394;2024-01-30T23:33:40;5.17;;;3.00;;
77722;SDS011;67811;42.656;23.394;2024-01-30T23:37:45;14.30;;;6.90;;
77722;SDS011;67811;42.656;23.394;2024-01-30T23:41:51;7.50;;;4.03;;
77722;SDS011;67811;42.656;23.394;2024-01-30T23:45:56;6.33;;;3.40;;
77722;SDS011;67811;42.656;23.394;2024-01-30T23:50:01;6.30;;;2.20;;
77722;SDS011;67811;42.656;23.394;2024-01-30T23:54:07;2.13;;;1.20;;
77722;SDS011;67811;42.656;23.394;2024-01-30T23:58:12;11.00;;;3.67;;
